Terminal Aerodrome Forecast
Issued by NWS Detroit/Pontiac, MI

Home | Current Version | Previous Version | Text Only | Print | Product List | Glossary On
Versions: 1 2 3 4 5 6 7 8 9 10 11 12 13 14 15 16 17 18 19 20 21 22 23 24 25 26 27 28 29
000
FTUS43 KDTX 062335
TAFDTW
TAF
KDTW 062335Z 0700/0806 16010KT P6SM FEW060 BKN250
     FM070800 21008KT P6SM SCT060 BKN120 OVC250
     FM071400 21010KT 6SM -SHRA OVC040
     FM071700 25010KT 4SM SHRA OVC025
     FM072000 32012KT P6SM BKN035 OVC080
     FM080000 36008KT P6SM SCT045=

USA.gov is the U.S. government's official web portal to all federal, state and local government web resources and services.